Time;durP1;ratioP1;P1;durP2;ratioP2;P2;SDS_P1;SDS_P2;PMS_P1;PMS_P2;Temp;Humidity;BMP_temperature;BMP_pressure;BME280_temperature;BME280_humidity;BME280_pressure;Samples;Min_cycle;Max_cycle;Signal;HPM_P1;HPM_P2
2022/10/06 00:01:12;;;;;;;;;;;;;;;16.53;77.49;100716.84;5012914;28;841;-64
2022/10/06 00:03:37;;;;;;;;;;;;;;;16.53;77.33;100711.31;5013238;28;904;-65
2022/10/06 00:06:03;;;;;;;;;;;;;;;16.53;76.83;100705.78;5013243;28;694;-65
2022/10/06 00:08:29;;;;;;;;;;;;;;;16.53;77.00;100719.59;5013340;28;1120;-65
2022/10/06 00:10:55;;;;;;;;;;;;;;;16.53;77.38;100723.19;5013386;28;1274;-64
2022/10/06 00:13:20;;;;;;;;;;;;;;;16.53;77.03;100728.69;5013260;28;1960;-65
2022/10/06 00:15:45;;;;;;;;;;;;;;;16.53;76.74;100745.28;5012985;28;836;-65
2022/10/06 00:18:11;;;;;;;;;;;;;;;16.54;77.04;100760.72;5013148;28;1154;-65
2022/10/06 00:20:36;;;;;;;;;;;;;;;16.54;77.51;100782.03;5014091;28;1269;-65
2022/10/06 00:23:02;;;;;;;;;;;;;;;16.55;76.89;100787.25;5017190;28;895;-65
2022/10/06 00:25:27;;;;;;;;;;;;;;;16.53;76.94;100783.97;5017131;28;814;-65
2022/10/06 00:27:52;;;;;;;;;;;;;;;16.54;76.64;100790.31;5016775;28;790;-64
2022/10/06 00:30:19;;;;;;;;;;;;;;;16.54;77.54;100793.06;5017058;28;1293;-64
2022/10/06 00:32:52;;;;;;;;;;;;;;;16.54;76.69;100796.66;5015896;28;1956;-65
2022/10/06 00:35:17;;;;;;;;;;;;;;;16.53;77.35;100808.84;5017040;28;821;-65
2022/10/06 00:37:42;;;;;;;;;;;;;;;16.55;76.58;100814.88;5016473;28;1074;-64
2022/10/06 00:40:08;;;;;;;;;;;;;;;16.53;76.91;100810.78;5016650;28;1201;-64
2022/10/06 00:42:46;;;;;;;;;;;;;;;16.54;76.80;100815.19;5016887;28;1161;-65
2022/10/06 00:45:11;;;;;;;;;;;;;;;16.54;77.14;100823.47;5016083;28;842;-65
2022/10/06 00:47:36;;;;;;;;;;;;;;;16.54;76.96;100835.34;5015286;28;1001;-64
2022/10/06 00:50:02;;;;;;;;;;;;;;;16.55;77.46;100853.56;5016858;28;1198;-64
2022/10/06 00:52:29;;;;;;;;;;;;;;;16.54;76.76;100856.63;5016595;28;1956;-65
2022/10/06 00:54:56;;;;;;;;;;;;;;;16.54;77.17;100885.09;5016528;28;842;-65
2022/10/06 00:57:21;;;;;;;;;;;;;;;16.54;77.40;100898.91;5015476;28;999;-65
2022/10/06 00:59:46;;;;;;;;;;;;;;;16.56;76.74;100915.19;5015927;28;1301;-65
2022/10/06 01:02:15;;;;;;;;;;;;;;;16.55;76.88;100922.66;5016283;28;1011;-65
2022/10/06 01:04:43;;;;;;;;;;;;;;;16.55;77.04;100927.38;5015355;28;1066;-65
2022/10/06 01:07:09;;;;;;;;;;;;;;;16.54;77.25;100931.25;5015481;28;842;-64
2022/10/06 01:09:34;;;;;;;;;;;;;;;16.54;77.40;100937.59;5015400;28;1205;-65
2022/10/06 01:12:01;;;;;;;;;;;;;;;16.55;77.18;100953.06;5015312;28;1031;-66
2022/10/06 01:14:27;;;;;;;;;;;;;;;16.54;77.28;100953.38;5015277;28;1969;-65
2022/10/06 01:16:56;;;;;;;;;;;;;;;16.56;76.85;100964.94;5015328;28;814;-65
2022/10/06 01:19:46;;;;;;;;;;;;;;;16.55;76.88;100961.34;5015925;28;1276;-66
2022/10/06 01:22:13;;;;;;;;;;;;;;;16.56;77.22;100978.75;5016338;28;919;-65
2022/10/06 01:24:38;;;;;;;;;;;;;;;16.54;77.09;100987.34;5015280;28;957;-65
2022/10/06 01:27:04;;;;;;;;;;;;;;;16.56;76.67;100981.50;5015879;28;794;-65
2022/10/06 01:29:33;;;;;;;;;;;;;;;16.54;77.07;100976.28;5015734;28;1205;-65
2022/10/06 01:31:58;;;;;;;;;;;;;;;16.56;76.60;100984.28;5014538;28;782;-65
2022/10/06 01:34:23;;;;;;;;;;;;;;;16.54;77.36;100992.88;5015448;28;1953;-65
2022/10/06 01:36:49;;;;;;;;;;;;;;;16.54;77.43;101001.16;5015690;28;988;-65
2022/10/06 01:39:14;;;;;;;;;;;;;;;16.54;77.32;101009.44;5014233;28;1205;-66
2022/10/06 01:41:39;;;;;;;;;;;;;;;16.54;77.00;101003.94;5015768;28;869;-65
2022/10/06 01:44:04;;;;;;;;;;;;;;;16.54;76.94;101008.63;5015087;28;794;-65
2022/10/06 01:46:30;;;;;;;;;;;;;;;16.54;77.12;101006.69;5014600;28;979;-65
2022/10/06 01:48:55;;;;;;;;;;;;;;;16.54;76.72;101011.41;5014239;28;1214;-64
2022/10/06 01:51:20;;;;;;;;;;;;;;;16.53;76.63;100998.69;5015308;28;893;-65
2022/10/06 01:53:45;;;;;;;;;;;;;;;16.53;77.05;101007.81;5014754;28;1955;-65
2022/10/06 01:56:10;;;;;;;;;;;;;;;16.53;77.30;101010.56;5014895;28;996;-65
2022/10/06 01:58:36;;;;;;;;;;;;;;;16.54;77.39;101019.69;5015408;28;852;-65
2022/10/06 02:01:05;;;;;;;;;;;;;;;16.52;76.76;101020.00;5015256;28;1169;-65
2022/10/06 02:03:32;;;;;;;;;;;;;;;16.53;76.72;101037.38;5015217;28;854;-65
2022/10/06 02:05:57;;;;;;;;;;;;;;;16.52;76.83;101041.28;5014978;28;956;-65
2022/10/06 02:08:22;;;;;;;;;;;;;;;16.53;76.64;101026.34;5015114;28;980;-66
2022/10/06 02:10:47;;;;;;;;;;;;;;;16.51;77.11;101012.81;5015090;28;1184;-65
2022/10/06 02:13:13;;;;;;;;;;;;;;;16.51;76.92;101023.88;5014705;28;1962;-65
2022/10/06 02:15:38;;;;;;;;;;;;;;;16.52;77.04;101024.69;5014395;28;877;-65
2022/10/06 02:18:03;;;;;;;;;;;;;;;16.52;77.39;101019.16;5014780;28;1003;-65
2022/10/06 02:20:28;;;;;;;;;;;;;;;16.51;77.14;101023.88;5014915;28;1201;-65
2022/10/06 02:22:53;;;;;;;;;;;;;;;16.51;77.15;101034.94;5014839;28;852;-65
2022/10/06 02:25:18;;;;;;;;;;;;;;;16.51;76.63;101037.69;5013865;28;976;-65
2022/10/06 02:27:44;;;;;;;;;;;;;;;16.51;77.21;101047.94;5014561;28;1004;-65
2022/10/06 02:30:09;;;;;;;;;;;;;;;16.52;76.57;101052.34;5014794;28;1276;-65
2022/10/06 02:32:35;;;;;;;;;;;;;;;16.51;76.72;101059.78;5014672;28;1895;-65
2022/10/06 02:35:02;;;;;;;;;;;;;;;16.51;76.89;101050.69;5014646;28;782;-64
2022/10/06 02:37:27;;;;;;;;;;;;;;;16.50;76.89;101049.88;5014633;28;830;-65
2022/10/06 02:39:52;;;;;;;;;;;;;;;16.51;76.91;101062.56;5014061;28;1213;-65
2022/10/06 02:42:18;;;;;;;;;;;;;;;16.50;76.57;101058.16;5014270;28;881;-65
2022/10/06 02:44:43;;;;;;;;;;;;;;;16.50;77.09;101063.69;5016093;28;1083;-65
2022/10/06 02:47:15;;;;;;;;;;;;;;;16.50;77.30;101065.66;5034049;28;897;-65
2022/10/06 02:49:40;;;;;;;;;;;;;;;16.50;76.93;101071.19;5033479;28;1229;-65
2022/10/06 02:52:05;;;;;;;;;;;;;;;16.50;76.79;101079.47;5033992;28;797;-65
2022/10/06 02:54:32;;;;;;;;;;;;;;;16.50;77.10;101093.28;5033983;28;1894;-65
2022/10/06 02:56:57;;;;;;;;;;;;;;;16.51;76.73;101086.63;5033844;28;857;-66
2022/10/06 02:59:23;;;;;;;;;;;;;;;16.49;76.77;101098.00;5033889;28;1197;-65
2022/10/06 03:01:48;;;;;;;;;;;;;;;16.49;77.02;101103.53;5034167;28;841;-65
2022/10/06 03:04:13;;;;;;;;;;;;;;;16.50;77.29;101116.19;5033902;28;1012;-65
2022/10/06 03:06:38;;;;;;;;;;;;;;;16.49;76.71;101114.56;5033698;28;693;-65
2022/10/06 03:09:04;;;;;;;;;;;;;;;16.49;76.84;101109.06;5034136;28;1308;-65
2022/10/06 03:11:31;;;;;;;;;;;;;;;16.49;76.80;101122.88;5033901;28;991;-65
2022/10/06 03:13:56;;;;;;;;;;;;;;;16.49;76.85;101122.88;5033841;28;1898;-65
2022/10/06 03:16:21;;;;;;;;;;;;;;;16.49;76.77;101122.03;5032552;28;845;-65
2022/10/06 03:18:48;;;;;;;;;;;;;;;16.49;76.88;101124.81;5033485;28;1320;-64
2022/10/06 03:21:14;;;;;;;;;;;;;;;16.49;76.96;101130.34;5033847;28;837;-65
2022/10/06 03:23:41;;;;;;;;;;;;;;;16.48;76.84;101135.03;5033778;28;873;-65
2022/10/06 03:26:06;;;;;;;;;;;;;;;16.48;76.81;101146.09;5033174;28;818;-65
2022/10/06 03:28:31;;;;;;;;;;;;;;;16.48;77.30;101139.75;5032754;28;978;-65
2022/10/06 03:31:03;;;;;;;;;;;;;;;16.48;76.80;101148.03;5033583;28;1186;-65
2022/10/06 03:33:28;;;;;;;;;;;;;;;16.48;77.05;101148.88;5032523;28;1952;-65
2022/10/06 03:36:04;;;;;;;;;;;;;;;16.48;77.28;101148.03;5033125;28;1000;-65
2022/10/06 03:38:30;;;;;;;;;;;;;;;16.47;77.45;101158.28;5033207;28;976;-65
2022/10/06 03:41:19;;;;;;;;;;;;;;;16.47;76.85;101177.63;5033296;28;1208;-65
2022/10/06 03:43:45;;;;;;;;;;;;;;;16.47;77.24;101177.63;5024528;28;1459;-65
2022/10/06 03:46:11;;;;;;;;;;;;;;;16.48;77.14;101182.03;5032514;28;921;-65
2022/10/06 03:48:36;;;;;;;;;;;;;;;16.48;77.24;101184.78;5032065;28;1063;-65
2022/10/06 03:51:03;;;;;;;;;;;;;;;16.48;77.38;101189.50;5033093;28;1234;-66
2022/10/06 03:53:29;;;;;;;;;;;;;;;16.48;77.36;101197.78;5033156;28;1890;-65
2022/10/06 03:56:09;;;;;;;;;;;;;;;16.48;77.12;101201.38;5032170;28;757;-65
2022/10/06 03:58:35;;;;;;;;;;;;;;;16.47;77.00;101208.00;5033423;28;1078;-67
2022/10/06 04:01:02;;;;;;;;;;;;;;;16.48;77.54;101211.59;5032811;28;1250;-67
2022/10/06 04:03:28;;;;;;;;;;;;;;;16.47;77.45;101208.00;5032505;28;834;-67
2022/10/06 04:05:57;;;;;;;;;;;;;;;16.47;77.50;101221.00;5031484;28;1212;-67
2022/10/06 04:08:22;;;;;;;;;;;;;;;16.46;77.13;101219.38;5032516;28;881;-67
2022/10/06 04:10:48;;;;;;;;;;;;;;;16.47;77.34;101221.00;5033018;28;1303;-66
2022/10/06 04:13:14;;;;;;;;;;;;;;;16.47;76.96;101223.78;5032659;28;1899;-67
2022/10/06 04:15:39;;;;;;;;;;;;;;;16.46;77.15;101228.47;5031994;28;936;-65
2022/10/06 04:18:04;;;;;;;;;;;;;;;16.47;77.17;101237.59;5032786;28;1051;-67
2022/10/06 04:20:30;;;;;;;;;;;;;;;16.48;77.58;101242.00;5032725;28;1309;-66
2022/10/06 04:22:55;;;;;;;;;;;;;;;16.48;77.47;101242.00;5032837;28;984;-67
2022/10/06 04:25:20;;;;;;;;;;;;;;;16.49;77.33;101250.00;5032786;28;945;-66
2022/10/06 04:27:45;;;;;;;;;;;;;;;16.51;77.92;101244.13;5032383;28;797;-67
2022/10/06 04:30:11;;;;;;;;;;;;;;;16.52;77.82;101252.13;5031819;28;1327;-66
2022/10/06 04:32:36;;;;;;;;;;;;;;;16.52;77.66;101260.41;5032162;28;1897;-67
2022/10/06 04:35:01;;;;;;;;;;;;;;;16.51;77.74;101261.53;5032924;28;889;-67
2022/10/06 04:37:27;;;;;;;;;;;;;;;16.49;77.80;101260.22;5031858;28;1241;-67
2022/10/06 04:39:52;;;;;;;;;;;;;;;16.48;77.63;101275.16;5013100;28;1197;-67
2022/10/06 04:42:18;;;;;;;;;;;;;;;16.47;78.38;101276.28;5013140;28;1624;-67
2022/10/06 04:44:43;;;;;;;;;;;;;;;16.46;77.67;101275.44;5013378;28;987;-67
2022/10/06 04:47:08;;;;;;;;;;;;;;;16.45;78.23;101279.34;5012950;28;830;-66
2022/10/06 04:49:33;;;;;;;;;;;;;;;16.45;78.00;101279.34;5013003;28;1221;-66
2022/10/06 04:51:58;;;;;;;;;;;;;;;16.44;77.70;101287.91;5013105;28;909;-66
2022/10/06 04:54:23;;;;;;;;;;;;;;;16.43;77.62;101291.81;5013094;28;1898;-67
2022/10/06 04:56:49;;;;;;;;;;;;;;;16.42;78.51;101296.50;5012709;28;806;-66
2022/10/06 04:59:14;;;;;;;;;;;;;;;16.43;78.15;101308.38;5012893;28;1272;-68
2022/10/06 05:01:39;;;;;;;;;;;;;;;16.41;78.33;101305.13;5012803;28;801;-67
2022/10/06 05:04:05;;;;;;;;;;;;;;;16.41;78.36;101318.94;5013083;28;817;-67
2022/10/06 05:06:32;;;;;;;;;;;;;;;16.40;78.54;101315.34;5013257;28;793;-67
2022/10/06 05:08:58;;;;;;;;;;;;;;;16.40;78.11;101325.56;5016643;28;1312;-66
2022/10/06 05:11:24;;;;;;;;;;;;;;;16.40;78.26;101322.81;5032043;28;854;-67
2022/10/06 05:13:50;;;;;;;;;;;;;;;16.39;78.32;101329.47;5016489;28;1902;-67
2022/10/06 05:16:16;;;;;;;;;;;;;;;16.38;78.37;101336.94;5015975;28;1832;-67
2022/10/06 05:18:42;;;;;;;;;;;;;;;16.38;78.22;101333.34;5015894;28;921;-67
2022/10/06 05:21:11;;;;;;;;;;;;;;;16.38;77.93;101336.94;5016368;28;1542;-66
2022/10/06 05:23:37;;;;;;;;;;;;;;;16.37;78.08;101348.28;5016366;28;825;-67
2022/10/06 05:26:03;;;;;;;;;;;;;;;16.37;78.07;101353.78;5016040;28;908;-66
2022/10/06 05:28:29;;;;;;;;;;;;;;;16.37;78.04;101359.31;5016368;28;884;-67
2022/10/06 05:30:56;;;;;;;;;;;;;;;16.37;78.16;101364.84;5016121;28;1197;-67
2022/10/06 05:33:21;;;;;;;;;;;;;;;16.36;78.39;101366.78;5016124;28;1906;-67
2022/10/06 05:35:54;;;;;;;;;;;;;;;16.36;78.00;101372.31;5015894;28;832;-67
2022/10/06 05:38:19;;;;;;;;;;;;;;;16.36;77.89;101375.06;5016405;28;885;-68
2022/10/06 05:40:44;;;;;;;;;;;;;;;16.35;78.40;101376.19;5016009;28;1209;-67
2022/10/06 05:43:10;;;;;;;;;;;;;;;16.35;78.36;101384.47;5016032;28;1166;-66
2022/10/06 05:45:35;;;;;;;;;;;;;;;16.36;78.20;101379.78;5015918;28;960;-67
2022/10/06 05:48:00;;;;;;;;;;;;;;;16.34;78.11;101393.88;5015655;28;1043;-67
2022/10/06 05:50:25;;;;;;;;;;;;;;;16.35;78.81;101394.72;5015783;28;1310;-68
2022/10/06 05:52:52;;;;;;;;;;;;;;;16.34;78.23;101396.66;5015725;28;1890;-67
2022/10/06 05:55:18;;;;;;;;;;;;;;;16.33;78.33;101400.56;5015778;28;873;-67
2022/10/06 05:57:43;;;;;;;;;;;;;;;16.35;78.38;101416.81;5015454;28;1057;-67
2022/10/06 06:00:08;;;;;;;;;;;;;;;16.33;78.35;101414.38;5015563;28;1295;-66
2022/10/06 06:02:33;;;;;;;;;;;;;;;16.34;77.99;101420.69;5015594;28;1185;-67
2022/10/06 06:04:58;;;;;;;;;;;;;;;16.34;78.36;101432.56;5015693;28;885;-67
2022/10/06 06:07:24;;;;;;;;;;;;;;;16.34;78.41;101437.28;5015363;28;968;-67
2022/10/06 06:09:49;;;;;;;;;;;;;;;16.34;78.29;101440.03;5015477;28;1253;-67
2022/10/06 06:12:15;;;;;;;;;;;;;;;16.34;78.53;101454.66;5015172;28;945;-67
2022/10/06 06:17:24;;;;;;;;;;;;;;;16.34;78.27;101462.97;5015147;28;730;-67
2022/10/06 06:19:49;;;;;;;;;;;;;;;16.34;78.59;101464.91;5014726;28;1268;-67
2022/10/06 06:22:14;;;;;;;;;;;;;;;16.34;78.40;101471.25;5015296;28;996;-67
2022/10/06 06:24:39;;;;;;;;;;;;;;;16.33;78.45;101474.34;5015249;28;806;-67
2022/10/06 06:27:04;;;;;;;;;;;;;;;16.34;78.76;101470.44;5015071;28;876;-67
2022/10/06 06:29:29;;;;;;;;;;;;;;;16.33;78.50;101472.41;5014966;28;1205;-67
2022/10/06 06:31:54;;;;;;;;;;;;;;;16.32;78.19;101481.81;5015210;28;1135;-67
2022/10/06 06:34:20;;;;;;;;;;;;;;;16.33;78.28;101486.22;5015123;28;1902;-67
2022/10/06 06:36:52;;;;;;;;;;;;;;;16.33;78.31;101485.38;5013975;28;1004;-66
2022/10/06 06:39:18;;;;;;;;;;;;;;;16.33;78.37;101500.03;5014932;28;1189;-66
2022/10/06 06:41:44;;;;;;;;;;;;;;;16.33;78.69;101513.84;5014969;28;836;-67
2022/10/06 06:44:10;;;;;;;;;;;;;;;16.32;78.31;101509.44;5014829;28;875;-66
2022/10/06 06:46:36;;;;;;;;;;;;;;;16.32;78.35;101516.88;5014481;28;841;-66
2022/10/06 06:49:04;;;;;;;;;;;;;;;16.32;78.21;101516.88;5014702;28;1209;-66
2022/10/06 06:51:33;;;;;;;;;;;;;;;16.33;78.16;101526.84;5014724;28;790;-66
2022/10/06 06:54:01;;;;;;;;;;;;;;;16.32;78.23;101528.78;5014606;28;1906;-67
2022/10/06 06:56:26;;;;;;;;;;;;;;;16.33;78.46;101529.59;5014411;28;825;-68
2022/10/06 06:58:51;;;;;;;;;;;;;;;16.32;78.53;101547.28;5014349;28;1228;-67
2022/10/06 07:01:18;;;;;;;;;;;;;;;16.33;77.90;101552.53;5014544;28;969;-67
2022/10/06 07:03:44;;;;;;;;;;;;;;;16.33;78.29;101557.22;5014571;28;991;-67
2022/10/06 07:06:15;;;;;;;;;;;;;;;16.33;78.22;101557.22;5014148;28;993;-67
2022/10/06 07:08:43;;;;;;;;;;;;;;;16.32;78.29;101566.63;5014577;28;829;-67
2022/10/06 07:11:41;;;;;;;;;;;;;;;16.33;77.97;101565.50;5014387;28;815;-67
2022/10/06 07:14:10;;;;;;;;;;;;;;;16.32;78.22;101567.44;5012868;28;1959;-67
2022/10/06 07:25:05;;;;;;;;;;;;;;;16.34;77.93;101580.94;5014298;28;608;-67
2022/10/06 07:27:32;;;;;;;;;;;;;;;16.34;77.95;101603.06;5013799;28;881;-66
2022/10/06 07:29:57;;;;;;;;;;;;;;;16.34;78.19;101594.75;5013422;28;1213;-67
2022/10/06 07:32:23;;;;;;;;;;;;;;;16.34;77.89;101598.34;5013810;28;849;-67
2022/10/06 07:34:49;;;;;;;;;;;;;;;16.34;78.03;101598.34;5014115;28;1955;-67
2022/10/06 07:37:14;;;;;;;;;;;;;;;16.35;78.35;101613.00;5013642;28;1035;-67
2022/10/06 07:39:40;;;;;;;;;;;;;;;16.35;78.10;101607.47;5013977;28;1201;-67
2022/10/06 07:42:05;;;;;;;;;;;;;;;16.35;77.95;101615.75;5013829;28;900;-66
2022/10/06 07:44:31;;;;;;;;;;;;;;;16.35;78.01;101627.63;5013828;28;1022;-66
2022/10/06 07:46:56;;;;;;;;;;;;;;;16.35;78.04;101621.28;5013482;28;953;-68
2022/10/06 07:49:21;;;;;;;;;;;;;;;16.37;77.74;101632.88;5013731;28;1269;-67
2022/10/06 07:51:46;;;;;;;;;;;;;;;16.36;78.41;101628.47;5013941;28;913;-67
2022/10/06 07:54:11;;;;;;;;;;;;;;;16.36;77.98;101633.97;5013593;28;1898;-67
2022/10/06 07:56:36;;;;;;;;;;;;;;;16.36;77.83;101636.75;5013454;28;805;-67
2022/10/06 07:59:02;;;;;;;;;;;;;;;16.36;77.87;101645.03;5013397;28;1281;-67
2022/10/06 08:01:28;;;;;;;;;;;;;;;16.36;77.49;101647.81;5013618;28;827;-67
2022/10/06 08:03:54;;;;;;;;;;;;;;;16.36;77.54;101650.56;5013781;28;866;-66
2022/10/06 08:06:19;;;;;;;;;;;;;;;16.36;77.83;101653.31;5013288;28;993;-66
2022/10/06 08:08:46;;;;;;;;;;;;;;;16.36;77.84;101653.31;5013726;28;1681;-67
2022/10/06 08:11:12;;;;;;;;;;;;;;;16.36;78.07;101661.63;5013707;28;869;-67
2022/10/06 08:13:38;;;;;;;;;;;;;;;16.37;77.99;101652.22;5013110;28;1910;-67
2022/10/06 08:16:14;;;;;;;;;;;;;;;16.36;77.66;101658.84;5013100;28;789;-66
2022/10/06 08:18:40;;;;;;;;;;;;;;;16.37;77.73;101666.03;5013559;28;948;-67
2022/10/06 08:21:12;;;;;;;;;;;;;;;16.36;77.65;101670.72;5013296;28;1304;-67
2022/10/06 08:23:39;;;;;;;;;;;;;;;16.36;77.83;101664.38;5013449;28;844;-67
2022/10/06 08:26:04;;;;;;;;;;;;;;;16.36;77.63;101678.19;5013107;28;810;-67
2022/10/06 08:28:31;;;;;;;;;;;;;;;16.36;77.90;101679.03;5013346;28;916;-67
2022/10/06 08:30:56;;;;;;;;;;;;;;;16.36;77.63;101683.72;5013333;28;1276;-66
2022/10/06 08:33:21;;;;;;;;;;;;;;;16.37;77.73;101685.38;5013249;28;1969;-67
2022/10/06 08:35:46;;;;;;;;;;;;;;;16.37;77.44;101690.91;5013104;28;1095;-66
2022/10/06 08:38:13;;;;;;;;;;;;;;;16.36;77.51;101684.53;5013201;28;980;-67
2022/10/06 08:40:40;;;;;;;;;;;;;;;16.36;77.45;101687.31;5013093;28;1172;-66
2022/10/06 08:43:12;;;;;;;;;;;;;;;16.37;77.63;101693.66;5016346;28;889;-67
2022/10/06 08:45:41;;;;;;;;;;;;;;;16.38;77.96;101692.56;5017225;28;864;-67
2022/10/06 08:48:27;;;;;;;;;;;;;;;16.37;77.70;101688.97;5016737;28;988;-66
2022/10/06 08:51:11;;;;;;;;;;;;;;;16.38;77.85;101701.66;5017005;28;1220;-66
2022/10/06 08:53:45;;;;;;;;;;;;;;;16.37;77.60;101702.78;5016934;28;1899;-67
2022/10/06 08:56:16;;;;;;;;;;;;;;;16.39;77.77;101702.50;5016693;28;850;-67
2022/10/06 08:58:56;;;;;;;;;;;;;;;16.39;77.91;101708.03;5017060;28;872;-67
2022/10/06 09:01:24;;;;;;;;;;;;;;;16.39;77.67;101710.78;5015526;28;1227;-67
2022/10/06 09:03:51;;;;;;;;;;;;;;;16.39;77.71;101710.78;5016762;28;988;-67
2022/10/06 09:06:22;;;;;;;;;;;;;;;16.38;77.75;101721.00;5016410;28;833;-67
2022/10/06 09:08:50;;;;;;;;;;;;;;;16.39;77.24;101719.06;5016667;28;1312;-66
2022/10/06 09:11:29;;;;;;;;;;;;;;;16.40;77.66;101723.50;5016568;28;849;-67
2022/10/06 09:14:00;;;;;;;;;;;;;;;16.40;77.13;101723.50;5016677;28;1898;-67
2022/10/06 09:16:27;;;;;;;;;;;;;;;16.39;76.98;101717.13;5016284;28;1000;-67
2022/10/06 09:19:16;;;;;;;;;;;;;;;16.38;77.09;101722.94;5016442;28;1290;-67
2022/10/06 09:21:44;;;;;;;;;;;;;;;16.38;77.13;101729.31;5005510;28;1213;-66
2022/10/06 09:24:12;;;;;;;;;;;;;;;16.38;77.04;101734.84;5016396;28;924;-65
2022/10/06 09:26:42;;;;;;;;;;;;;;;16.37;77.59;101738.72;5015985;28;878;-67
2022/10/06 09:29:07;;;;;;;;;;;;;;;16.37;77.03;101743.41;5016196;28;1138;-68
2022/10/06 09:31:40;;;;;;;;;;;;;;;16.39;77.68;101743.94;5015895;28;813;-67
2022/10/06 09:34:21;;;;;;;;;;;;;;;16.38;77.70;101737.59;5016116;28;1956;-67
2022/10/06 09:37:03;;;;;;;;;;;;;;;16.37;77.64;101747.00;5015967;28;992;-67
2022/10/06 09:39:32;;;;;;;;;;;;;;;16.38;77.44;101748.66;5015904;28;1304;-68
2022/10/06 09:42:01;;;;;;;;;;;;;;;16.38;77.59;101751.41;5015970;28;911;-66
2022/10/06 09:44:28;;;;;;;;;;;;;;;16.38;77.50;101758.88;5015781;28;865;-67
2022/10/06 09:46:53;;;;;;;;;;;;;;;16.38;77.09;101758.88;5015630;28;809;-67
2022/10/06 09:49:22;;;;;;;;;;;;;;;16.40;77.05;101762.19;5015806;28;1217;-67
2022/10/06 09:51:58;;;;;;;;;;;;;;;16.39;77.38;101758.59;5015971;28;866;-67
2022/10/06 09:54:23;;;;;;;;;;;;;;;16.39;77.20;101761.34;5014762;28;1955;-67
2022/10/06 09:56:49;;;;;;;;;;;;;;;16.39;77.21;101766.88;5015722;28;818;-67
2022/10/06 09:59:23;;;;;;;;;;;;;;;16.39;77.51;101758.59;5015514;28;1217;-67
2022/10/06 10:01:54;;;;;;;;;;;;;;;16.39;77.15;101752.25;5015602;28;976;-67
2022/10/06 10:04:25;;;;;;;;;;;;;;;16.38;77.37;101762.47;5015496;28;935;-67
2022/10/06 10:06:50;;;;;;;;;;;;;;;16.39;77.48;101772.41;5015406;28;833;-66
2022/10/06 10:09:17;;;;;;;;;;;;;;;16.39;77.48;101768.81;5015409;28;1299;-67
2022/10/06 10:14:26;;;;;;;;;;;;;;;16.39;77.46;101766.88;5015425;28;1961;-67
2022/10/06 10:16:51;;;;;;;;;;;;;;;16.40;77.24;101770.47;5015168;28;829;-67
2022/10/06 10:19:32;;;;;;;;;;;;;;;16.40;76.99;101770.47;5015263;28;1284;-66
2022/10/06 10:21:58;;;;;;;;;;;;;;;16.40;77.63;101776.00;5015564;28;868;-67
2022/10/06 10:24:37;;;;;;;;;;;;;;;16.39;77.00;101777.94;5015160;28;899;-67
2022/10/06 10:27:07;;;;;;;;;;;;;;;16.40;77.52;101773.25;5014979;28;992;-67
2022/10/06 10:29:32;;;;;;;;;;;;;;;16.39;77.60;101782.63;5015078;28;1201;-67
2022/10/06 10:32:02;;;;;;;;;;;;;;;16.39;77.17;101779.88;5015142;28;896;-67
2022/10/06 10:34:47;;;;;;;;;;;;;;;16.40;77.34;101784.28;5015188;28;1890;-67
2022/10/06 10:37:27;;;;;;;;;;;;;;;16.40;77.61;101778.75;5014813;28;1008;-67
2022/10/06 10:39:57;;;;;;;;;;;;;;;16.40;77.66;101778.75;5014768;28;1201;-67
2022/10/06 10:42:30;;;;;;;;;;;;;;;16.41;76.71;101781.25;5015245;28;900;-67
2022/10/06 10:44:59;;;;;;;;;;;;;;;16.41;77.16;101784.00;5015048;28;888;-66
2022/10/06 10:47:27;;;;;;;;;;;;;;;16.41;76.92;101783.19;5014320;28;913;-67
2022/10/06 10:50:05;;;;;;;;;;;;;;;16.42;76.82;101790.34;5014837;28;1324;-67
2022/10/06 10:52:33;;;;;;;;;;;;;;;16.43;77.00;101797.50;5014954;28;846;-68
2022/10/06 10:55:16;;;;;;;;;;;;;;;16.42;77.28;101784.81;5029774;28;1959;-66
2022/10/06 10:57:42;;;;;;;;;;;;;;;16.42;76.72;101782.88;5014546;28;826;-67
2022/10/06 11:00:16;;;;;;;;;;;;;;;16.43;76.94;101794.75;5014531;28;1289;-67
2022/10/06 11:02:42;;;;;;;;;;;;;;;16.42;77.22;101784.81;5014222;28;1145;-67
2022/10/06 11:05:13;;;;;;;;;;;;;;;16.42;77.45;101787.56;5014556;28;1316;-67
2022/10/06 11:07:43;;;;;;;;;;;;;;;16.41;77.23;101785.94;5014199;28;996;-67
2022/10/06 11:10:12;;;;;;;;;;;;;;;16.41;77.00;101791.47;5014054;28;1254;-67
2022/10/06 11:13:03;;;;;;;;;;;;;;;16.41;77.24;101794.22;5014282;28;1973;-67
2022/10/06 11:15:34;;;;;;;;;;;;;;;16.41;77.36;101795.06;5013270;28;1592;-67
2022/10/06 11:18:08;;;;;;;;;;;;;;;16.41;76.92;101795.06;5013975;28;884;-67
2022/10/06 11:20:56;;;;;;;;;;;;;;;16.42;77.52;101796.69;5014365;28;1319;-67
2022/10/06 11:23:21;;;;;;;;;;;;;;;16.41;77.21;101791.47;5014209;28;1060;-67
2022/10/06 11:25:52;;;;;;;;;;;;;;;16.41;77.21;101805.28;5014019;28;826;-67
2022/10/06 11:28:30;;;;;;;;;;;;;;;16.40;77.34;101793.41;5014309;28;806;-67
2022/10/06 11:30:55;;;;;;;;;;;;;;;16.40;76.97;101789.81;5014179;28;1352;-67
2022/10/06 11:33:53;;;;;;;;;;;;;;;16.40;77.17;101795.34;5013890;28;1961;-67
2022/10/06 11:36:30;;;;;;;;;;;;;;;16.40;77.35;101787.88;5012362;28;1307;-66
2022/10/06 11:39:12;;;;;;;;;;;;;;;16.41;77.33;101795.06;5013719;28;1311;-68
2022/10/06 11:41:41;;;;;;;;;;;;;;;16.41;76.94;101792.28;5014272;28;992;-66
2022/10/06 11:44:09;;;;;;;;;;;;;;;16.42;77.00;101795.84;5013857;28;960;-67
2022/10/06 11:46:34;;;;;;;;;;;;;;;16.42;76.84;101793.09;5013495;28;1051;-67
2022/10/06 11:49:18;;;;;;;;;;;;;;;16.43;77.33;101787.28;5013687;28;1189;-67
2022/10/06 11:51:44;;;;;;;;;;;;;;;16.44;76.96;101779.81;5013868;28;846;-67
2022/10/06 11:54:27;;;;;;;;;;;;;;;16.45;77.39;101778.72;5013699;28;1902;-67
2022/10/06 11:56:52;;;;;;;;;;;;;;;16.46;76.63;101783.97;5013536;28;798;-68
2022/10/06 11:59:29;;;;;;;;;;;;;;;16.45;76.51;101782.31;5013438;28;1452;-67
2022/10/06 12:01:54;;;;;;;;;;;;;;;16.47;76.52;101787.53;5013784;28;829;-67
2022/10/06 12:04:20;;;;;;;;;;;;;;;16.48;76.97;101789.19;5013584;28;1074;-67
2022/10/06 12:06:45;;;;;;;;;;;;;;;16.49;77.08;101785.31;5013371;28;939;-66
2022/10/06 12:09:22;;;;;;;;;;;;;;;16.50;77.13;101775.91;5013530;28;1217;-67
2022/10/06 12:11:49;;;;;;;;;;;;;;;16.51;76.57;101785.84;5013505;28;984;-66
2022/10/06 12:14:33;;;;;;;;;;;;;;;16.50;77.12;101779.47;5013435;28;1906;-67
2022/10/06 12:17:02;;;;;;;;;;;;;;;16.51;76.50;101783.06;5012728;28;1003;-67
2022/10/06 12:19:35;;;;;;;;;;;;;;;16.50;76.46;101773.94;5013400;28;1190;-67
2022/10/06 12:22:21;;;;;;;;;;;;;;;16.51;77.01;101778.38;5013464;28;1015;-67
2022/10/06 12:24:58;;;;;;;;;;;;;;;16.51;76.73;101774.78;5013456;28;844;-67
2022/10/06 12:27:32;;;;;;;;;;;;;;;16.51;76.93;101772.84;5013152;28;822;-66
2022/10/06 12:30:04;;;;;;;;;;;;;;;16.52;76.87;101779.19;5013341;28;1291;-67
2022/10/06 12:32:38;;;;;;;;;;;;;;;16.52;76.88;101779.19;5013288;28;884;-67
2022/10/06 12:35:06;;;;;;;;;;;;;;;16.53;76.42;101780.84;5013228;28;1969;-67
2022/10/06 12:37:41;;;;;;;;;;;;;;;16.56;76.76;101777.53;5013042;28;996;-67
2022/10/06 12:40:25;;;;;;;;;;;;;;;16.57;76.13;101777.25;5013246;28;1340;-67
2022/10/06 12:42:52;;;;;;;;;;;;;;;16.59;76.86;101779.69;5013139;28;983;-67
2022/10/06 12:45:18;;;;;;;;;;;;;;;16.62;76.57;101768.09;5013215;28;841;-67
2022/10/06 12:47:43;;;;;;;;;;;;;;;16.66;76.65;101771.13;5012942;28;964;-67
2022/10/06 12:50:19;;;;;;;;;;;;;;;16.68;76.49;101771.63;5012972;28;1206;-66
2022/10/06 12:52:47;;;;;;;;;;;;;;;16.71;76.26;101762.75;5013136;28;1949;-66
2022/10/06 12:55:27;;;;;;;;;;;;;;;16.72;76.18;101769.94;5013077;28;870;-67
2022/10/06 12:57:53;;;;;;;;;;;;;;;16.74;76.34;101765.78;5012891;28;810;-66
2022/10/06 13:00:22;;;;;;;;;;;;;;;16.74;76.44;101768.53;5012774;28;1197;-67
2022/10/06 13:02:47;;;;;;;;;;;;;;;16.75;75.94;101769.38;5013066;28;913;-67
2022/10/06 13:05:13;;;;;;;;;;;;;;;16.74;75.74;101776.00;5012868;28;999;-67
2022/10/06 13:07:55;;;;;;;;;;;;;;;16.73;75.85;101777.94;5012667;28;996;-67
2022/10/06 13:10:22;;;;;;;;;;;;;;;16.72;76.49;101768.00;5013160;28;1263;-67
2022/10/06 13:12:49;;;;;;;;;;;;;;;16.73;76.11;101769.66;5012993;28;1898;-67